createdAt,value
2019-05-07T00:00:06.278Z,100116.17
2019-05-07T00:02:37.097Z,100118.37
2019-05-07T00:05:07.445Z,100120.16
2019-05-07T00:07:38.007Z,100118.00
2019-05-07T00:10:10.117Z,100114.54
2019-05-07T00:12:40.357Z,100111.94
2019-05-07T00:15:12.608Z,100107.54
2019-05-07T00:17:43.279Z,100103.71
2019-05-07T00:20:15.317Z,100106.80
2019-05-07T00:22:46.129Z,100099.95
2019-05-07T00:25:16.943Z,100106.39
2019-05-07T00:27:47.628Z,100107.70
2019-05-07T00:30:18.498Z,100099.99
2019-05-07T00:32:48.798Z,100104.39
2019-05-07T00:35:36.326Z,100103.58
2019-05-07T00:38:12.907Z,100094.45
2019-05-07T00:40:44.934Z,100090.14
2019-05-07T00:43:17.192Z,100085.83
2019-05-07T00:45:49.922Z,100082.00
2019-05-07T00:48:20.582Z,100088.14
2019-05-07T00:50:53.327Z,100087.03
2019-05-07T00:53:23.904Z,100091.98
2019-05-07T00:55:55.156Z,100088.56
2019-05-07T00:58:26.905Z,100100.77
2019-05-07T01:00:57.812Z,100109.55
2019-05-07T01:03:28.514Z,100112.63
2019-05-07T01:06:02.064Z,100108.98
2019-05-07T01:08:32.392Z,100113.44
2019-05-07T01:11:02.991Z,100104.81
2019-05-07T01:13:33.811Z,100096.40
2019-05-07T01:16:04.737Z,100103.87
2019-05-07T01:18:35.017Z,100109.62
2019-05-07T01:21:05.245Z,100102.40
2019-05-07T01:23:35.489Z,100095.72
2019-05-07T01:26:06.050Z,100106.36
2019-05-07T01:28:54.883Z,100106.43
2019-05-07T01:31:27.176Z,100118.30
2019-05-07T01:33:59.666Z,100110.88
2019-05-07T01:36:31.915Z,100114.14
2019-05-07T01:39:02.700Z,100118.34
2019-05-07T01:41:34.642Z,100130.59
2019-05-07T01:44:05.742Z,100145.37
2019-05-07T01:46:36.542Z,100127.81
2019-05-07T01:49:07.173Z,100122.26
2019-05-07T01:51:37.511Z,100135.00
2019-05-07T01:54:08.066Z,100138.14
2019-05-07T01:56:38.725Z,100131.80
2019-05-07T01:59:09.073Z,100152.11
2019-05-07T02:01:39.356Z,100145.00
2019-05-07T02:04:17.270Z,100140.62
2019-05-07T02:07:05.522Z,100126.59
2019-05-07T02:09:46.722Z,100133.17
2019-05-07T02:12:28.021Z,100133.41
2019-05-07T02:14:58.726Z,100147.36
2019-05-07T02:17:29.043Z,100138.42
2019-05-07T02:20:02.670Z,100138.97
2019-05-07T02:22:34.743Z,100151.23
2019-05-07T02:25:07.232Z,100153.09
2019-05-07T02:27:38.920Z,100138.03
2019-05-07T02:30:14.398Z,100138.20
2019-05-07T02:32:43.609Z,100140.02
2019-05-07T02:35:16.276Z,100145.31
2019-05-07T02:37:55.658Z,100143.67
2019-05-07T02:40:24.862Z,100150.66
2019-05-07T02:42:55.493Z,100145.53
2019-05-07T02:45:33.157Z,100150.81
2019-05-07T02:48:03.560Z,100154.33
2019-05-07T02:50:39.907Z,100153.12
2019-05-07T02:53:17.699Z,100151.48
2019-05-07T02:55:48.102Z,100156.30
2019-05-07T02:58:18.679Z,100158.52
2019-05-07T03:00:48.963Z,100164.69
2019-05-07T03:03:19.212Z,100157.39
2019-05-07T03:05:49.496Z,100157.41
2019-05-07T03:08:23.597Z,100164.34
2019-05-07T03:10:52.841Z,100162.20
2019-05-07T03:13:24.167Z,100166.16
2019-05-07T03:15:55.219Z,100155.41
2019-05-07T03:18:25.775Z,100163.62
2019-05-07T03:21:03.614Z,100169.65
2019-05-07T03:23:36.647Z,100179.59
2019-05-07T03:26:08.864Z,100175.73
2019-05-07T03:28:53.210Z,100186.52
2019-05-07T03:31:28.253Z,100189.98
2019-05-07T03:34:09.479Z,100187.81
2019-05-07T03:36:56.359Z,100191.27
2019-05-07T03:39:27.555Z,100187.80
2019-05-07T03:41:58.373Z,100193.82
2019-05-07T03:44:46.201Z,100194.25
2019-05-07T03:47:18.437Z,100186.06
2019-05-07T03:49:49.734Z,100187.73
2019-05-07T03:52:20.041Z,100200.59
2019-05-07T03:54:50.296Z,100203.56
2019-05-07T03:57:23.471Z,100195.30
2019-05-07T03:59:53.484Z,100198.66
2019-05-07T04:02:24.254Z,100202.05
2019-05-07T04:04:55.137Z,100201.50
2019-05-07T04:07:25.577Z,100200.13
2019-05-07T04:09:55.838Z,100200.36
2019-05-07T04:12:26.444Z,100203.68
2019-05-07T04:14:58.394Z,100201.31
2019-05-07T04:17:28.635Z,100203.22
2019-05-07T04:19:58.838Z,100219.39
2019-05-07T04:22:29.591Z,100216.03
2019-05-07T04:25:04.481Z,100227.18
2019-05-07T04:27:46.291Z,100208.41
2019-05-07T04:30:15.076Z,100207.09
2019-05-07T04:32:47.304Z,100207.63
2019-05-07T04:35:19.298Z,100209.70
2019-05-07T04:37:49.970Z,100210.42
2019-05-07T04:40:23.697Z,100214.77
2019-05-07T04:42:53.808Z,100216.34
2019-05-07T04:45:24.507Z,100215.55
2019-05-07T04:47:54.738Z,100216.81
2019-05-07T04:50:41.977Z,100223.22
2019-05-07T04:52:58.564Z,100225.27
2019-05-07T04:55:28.778Z,100229.52
2019-05-07T04:57:59.051Z,100230.72
2019-05-07T05:00:29.286Z,100232.94
2019-05-07T05:03:19.050Z,100235.38
2019-05-07T05:05:52.914Z,100224.93
2019-05-07T05:08:23.374Z,100230.23
2019-05-07T05:10:54.213Z,100230.72
2019-05-07T05:13:24.584Z,100223.95
2019-05-07T05:15:54.757Z,100231.73
2019-05-07T05:18:25.490Z,100236.96
2019-05-07T05:20:57.409Z,100242.54
2019-05-07T05:23:32.303Z,100227.91
2019-05-07T05:26:02.735Z,100231.77
2019-05-07T05:28:33.932Z,100250.22
2019-05-07T05:31:06.179Z,100227.53
2019-05-07T05:33:36.948Z,100231.56
2019-05-07T05:36:07.317Z,100239.83
2019-05-07T05:38:37.904Z,100232.44
2019-05-07T05:41:08.214Z,100239.91
2019-05-07T05:43:42.430Z,100224.82
2019-05-07T05:46:16.318Z,100236.66
2019-05-07T05:48:46.890Z,100233.64
2019-05-07T05:51:26.129Z,100229.98
2019-05-07T05:54:04.269Z,100232.95
2019-05-07T05:56:45.411Z,100241.55
2019-05-07T05:59:25.433Z,100241.35
2019-05-07T06:02:06.328Z,100236.13
2019-05-07T06:04:48.400Z,100252.62
2019-05-07T06:07:35.123Z,100246.19
2019-05-07T06:10:15.660Z,100243.36
2019-05-07T06:12:47.531Z,100247.97
2019-05-07T06:15:35.996Z,100247.41
2019-05-07T06:18:20.364Z,100235.52
2019-05-07T06:20:42.845Z,100244.56
2019-05-07T06:23:24.588Z,100252.03
2019-05-07T06:25:54.862Z,100255.66
2019-05-07T06:28:25.988Z,100245.47
2019-05-07T06:30:56.706Z,100233.52
2019-05-07T06:33:27.343Z,100241.57
2019-05-07T06:35:58.071Z,100243.47
2019-05-07T06:38:31.577Z,100259.89
2019-05-07T06:41:09.437Z,100274.98
2019-05-07T06:43:42.253Z,100253.58
2019-05-07T06:46:13.053Z,100244.09
2019-05-07T06:48:46.140Z,100253.89
2019-05-07T06:51:17.561Z,100264.91
2019-05-07T06:53:47.314Z,100274.40
2019-05-07T06:56:17.525Z,100271.66
2019-05-07T06:58:49.387Z,100274.53
2019-05-07T07:01:25.194Z,100277.33
2019-05-07T07:03:58.387Z,100297.23
2019-05-07T07:06:39.545Z,100260.48
2019-05-07T07:09:12.931Z,100267.41
2019-05-07T07:11:45.494Z,100290.03
2019-05-07T07:14:15.736Z,100293.27
2019-05-07T07:16:46.061Z,100272.83
2019-05-07T07:19:17.548Z,100289.85
2019-05-07T07:21:47.801Z,100271.79
2019-05-07T07:24:18.599Z,100301.90
2019-05-07T07:26:49.268Z,100278.05
2019-05-07T07:29:22.003Z,100300.12
2019-05-07T07:31:55.088Z,100284.36
2019-05-07T07:34:27.047Z,100257.80
2019-05-07T07:37:06.163Z,100257.59
2019-05-07T07:39:32.297Z,100298.78
2019-05-07T07:42:05.232Z,100269.16
2019-05-07T07:44:35.879Z,100300.38
2019-05-07T07:47:06.527Z,100273.45
2019-05-07T07:49:37.442Z,100263.34
2019-05-07T07:52:07.798Z,100287.06
2019-05-07T07:54:38.485Z,100296.97
2019-05-07T07:57:26.642Z,100293.93
2019-05-07T08:00:02.585Z,100277.88
2019-05-07T08:02:36.499Z,100274.16
2019-05-07T08:05:07.928Z,100276.06
2019-05-07T08:07:38.368Z,100292.01
2019-05-07T08:10:10.259Z,100289.56
2019-05-07T08:12:42.163Z,100220.47
2019-05-07T08:15:20.301Z,100265.83
2019-05-07T08:17:45.851Z,100240.23
2019-05-07T08:20:18.390Z,100223.67
2019-05-07T08:22:49.220Z,100266.36
2019-05-07T08:25:21.848Z,100253.00
2019-05-07T08:27:52.545Z,100278.20
2019-05-07T08:30:27.132Z,100288.93
2019-05-07T08:32:59.468Z,100240.26
2019-05-07T08:35:34.507Z,100264.23
2019-05-07T08:38:05.691Z,100264.39
2019-05-07T08:40:35.925Z,100279.41
2019-05-07T08:43:06.994Z,100291.25
2019-05-07T08:45:56.547Z,100268.47
2019-05-07T08:48:28.550Z,100244.55
2019-05-07T08:50:58.894Z,100245.22
2019-05-07T08:53:29.563Z,100231.25
2019-05-07T08:56:00.031Z,100245.58
2019-05-07T08:58:32.094Z,100246.56
2019-05-07T09:01:03.029Z,100254.41
2019-05-07T09:03:43.186Z,100282.58
2019-05-07T09:06:17.373Z,100258.52
2019-05-07T09:08:48.035Z,100252.00
2019-05-07T09:11:20.389Z,100243.42
2019-05-07T09:13:52.541Z,100290.43
2019-05-07T09:16:23.372Z,100242.15
2019-05-07T09:18:57.364Z,100245.52
2019-05-07T09:21:28.118Z,100252.16
2019-05-07T09:24:02.529Z,100268.83
2019-05-07T09:26:44.437Z,100251.80
2019-05-07T09:29:22.209Z,100231.56
2019-05-07T09:31:52.800Z,100263.31
2019-05-07T09:34:28.154Z,100283.30
2019-05-07T09:37:02.227Z,100277.86
2019-05-07T09:39:33.584Z,100252.91
2019-05-07T09:42:04.242Z,100232.10
2019-05-07T09:44:34.809Z,100227.64
2019-05-07T09:47:06.274Z,100233.34
2019-05-07T09:49:36.550Z,100252.17
2019-05-07T09:52:06.855Z,100269.55
2019-05-07T09:54:39.016Z,100258.25
2019-05-07T09:57:26.843Z,100247.11
2019-05-07T09:59:45.400Z,100247.97
2019-05-07T10:02:15.507Z,100265.52
2019-05-07T10:04:46.095Z,100253.52
2019-05-07T10:07:17.474Z,100245.36
2019-05-07T10:09:47.751Z,100243.55
2019-05-07T10:12:28.717Z,100264.73
2019-05-07T10:15:00.274Z,100255.02
2019-05-07T10:17:47.002Z,100237.22
2019-05-07T10:20:22.528Z,100238.67
2019-05-07T10:22:52.086Z,100249.19
2019-05-07T10:25:22.599Z,100229.94
2019-05-07T10:27:53.336Z,100253.97
2019-05-07T10:30:25.515Z,100270.95
2019-05-07T10:32:55.751Z,100266.09
2019-05-07T10:35:26.412Z,100258.57
2019-05-07T10:37:57.059Z,100259.05
2019-05-07T10:40:28.884Z,100257.41
2019-05-07T10:42:59.279Z,100257.13
2019-05-07T10:45:33.971Z,100266.30
2019-05-07T10:48:22.275Z,100259.19
2019-05-07T10:50:57.200Z,100266.45
2019-05-07T10:53:27.915Z,100258.73
2019-05-07T10:55:58.857Z,100265.43
2019-05-07T10:58:29.105Z,100268.33
2019-05-07T11:00:59.407Z,100266.12
2019-05-07T11:03:29.655Z,100264.53
2019-05-07T11:05:59.865Z,100269.83
2019-05-07T11:08:32.721Z,100274.17
2019-05-07T11:11:03.167Z,100274.17
2019-05-07T11:13:33.859Z,100275.13
2019-05-07T11:16:14.553Z,100271.25
2019-05-07T11:18:48.628Z,100274.94
2019-05-07T11:21:22.274Z,100275.02
2019-05-07T11:23:52.562Z,100276.69
2019-05-07T11:26:22.957Z,100275.14
2019-05-07T11:28:55.596Z,100277.22
2019-05-07T11:31:26.093Z,100275.91
2019-05-07T11:33:56.601Z,100270.13
2019-05-07T11:36:26.909Z,100273.01
2019-05-07T11:38:58.830Z,100270.38
2019-05-07T11:41:32.814Z,100283.45
2019-05-07T11:44:08.176Z,100282.59
2019-05-07T11:46:44.450Z,100282.97
2019-05-07T11:49:16.660Z,100279.61
2019-05-07T11:51:51.730Z,100282.48
2019-05-07T11:54:22.392Z,100275.77
2019-05-07T11:56:55.497Z,100282.30
2019-05-07T11:59:24.978Z,100287.66
2019-05-07T12:01:59.839Z,100287.41
2019-05-07T12:04:31.999Z,100279.77
2019-05-07T12:07:02.795Z,100286.50
2019-05-07T12:09:33.503Z,100285.66
2019-05-07T12:12:13.724Z,100278.72
2019-05-07T12:14:43.996Z,100280.63
2019-05-07T12:17:14.600Z,100288.37
2019-05-07T12:19:45.255Z,100275.47
2019-05-07T12:22:17.252Z,100277.17
2019-05-07T12:24:47.551Z,100272.70
2019-05-07T12:27:18.181Z,100284.70
2019-05-07T12:29:48.863Z,100290.00
2019-05-07T12:32:23.826Z,100284.10
2019-05-07T12:34:55.800Z,100276.89
2019-05-07T12:37:26.121Z,100276.79
2019-05-07T12:39:56.442Z,100294.09
2019-05-07T12:42:26.769Z,100285.89
2019-05-07T12:45:15.372Z,100287.91
2019-05-07T12:47:45.625Z,100298.50
2019-05-07T12:50:16.246Z,100286.49
2019-05-07T12:52:48.411Z,100293.40
2019-05-07T12:55:23.457Z,100290.09
2019-05-07T12:57:54.118Z,100297.83
2019-05-07T13:00:42.839Z,100292.62
2019-05-07T13:03:28.127Z,100287.16
2019-05-07T13:05:59.375Z,100291.03
2019-05-07T13:08:30.345Z,100293.92
2019-05-07T13:11:03.034Z,100279.16
2019-05-07T13:13:34.111Z,100296.45
2019-05-07T13:16:05.065Z,100295.64
2019-05-07T13:18:35.749Z,100289.77
2019-05-07T13:21:06.523Z,100286.74
2019-05-07T13:23:37.241Z,100286.03
2019-05-07T13:26:12.814Z,100281.00
2019-05-07T13:28:46.274Z,100279.94
2019-05-07T13:31:27.985Z,100277.92
2019-05-07T13:34:02.921Z,100270.76
2019-05-07T13:36:35.303Z,100270.97
2019-05-07T13:39:13.732Z,100269.84
2019-05-07T13:41:44.276Z,100276.01
2019-05-07T13:44:16.600Z,100271.20
2019-05-07T13:46:49.477Z,100277.26
2019-05-07T13:49:21.818Z,100276.48
2019-05-07T13:52:03.565Z,100274.59
2019-05-07T13:54:29.919Z,100271.86
2019-05-07T13:57:00.650Z,100274.08
2019-05-07T13:59:32.322Z,100282.56
2019-05-07T14:02:05.045Z,100280.22
2019-05-07T14:04:37.938Z,100273.69
2019-05-07T14:07:08.648Z,100269.08
2019-05-07T14:09:42.046Z,100265.50
2019-05-07T14:12:12.602Z,100265.95
2019-05-07T14:14:43.223Z,100278.71
2019-05-07T14:17:13.836Z,100284.89
2019-05-07T14:19:45.671Z,100273.94
2019-05-07T14:22:19.056Z,100282.53
2019-05-07T14:24:48.264Z,100276.20
2019-05-07T14:27:18.951Z,100277.33
2019-05-07T14:29:52.360Z,100270.25
2019-05-07T14:32:24.594Z,100269.42
2019-05-07T14:35:13.367Z,100267.71
2019-05-07T14:37:47.592Z,100269.59
2019-05-07T14:40:19.942Z,100269.25
2019-05-07T14:42:52.575Z,100267.63
2019-05-07T14:45:23.893Z,100273.27
2019-05-07T14:47:54.365Z,100276.47
2019-05-07T14:50:24.585Z,100278.75
2019-05-07T14:52:56.864Z,100278.70
2019-05-07T14:55:27.333Z,100278.50
2019-05-07T14:58:01.879Z,100279.80
2019-05-07T15:00:35.182Z,100274.83
2019-05-07T15:03:07.126Z,100269.84
2019-05-07T15:05:37.508Z,100278.23
2019-05-07T15:08:11.154Z,100272.52
2019-05-07T15:10:41.830Z,100275.38
2019-05-07T15:13:12.844Z,100267.20
2019-05-07T15:15:43.636Z,100270.44
2019-05-07T15:18:27.612Z,100274.63
2019-05-07T15:20:58.241Z,100274.24
2019-05-07T15:23:31.476Z,100284.11
2019-05-07T15:26:04.740Z,100278.93
2019-05-07T15:28:35.932Z,100284.20
2019-05-07T15:31:23.915Z,100287.47
2019-05-07T15:33:54.498Z,100284.53
2019-05-07T15:36:25.020Z,100288.17
2019-05-07T15:38:55.323Z,100281.20
2019-05-07T15:41:26.035Z,100277.39
2019-05-07T15:43:57.057Z,100280.81
2019-05-07T15:46:27.433Z,100275.52
2019-05-07T15:48:58.072Z,100278.63
2019-05-07T15:51:28.681Z,100285.13
2019-05-07T15:54:00.641Z,100278.56
2019-05-07T15:56:32.372Z,100276.74
2019-05-07T15:59:03.042Z,100268.03
2019-05-07T16:01:33.330Z,100271.69
2019-05-07T16:04:04.106Z,100280.58
2019-05-07T16:06:34.822Z,100276.96
2019-05-07T16:09:12.970Z,100274.33
2019-05-07T16:11:54.771Z,100266.63
2019-05-07T16:17:21.760Z,100282.44
2019-05-07T16:19:55.186Z,100281.32
2019-05-07T16:22:27.530Z,100284.95
2019-05-07T16:24:57.833Z,100288.17
2019-05-07T16:27:44.699Z,100285.98
2019-05-07T16:30:16.769Z,100288.23
2019-05-07T16:32:47.017Z,100285.24
2019-05-07T16:35:17.553Z,100295.86
2019-05-07T16:37:48.147Z,100295.38
2019-05-07T16:40:18.720Z,100298.00
2019-05-07T16:42:48.962Z,100300.48
2019-05-07T16:45:19.458Z,100300.29
2019-05-07T16:47:52.145Z,100306.78
2019-05-07T16:50:22.997Z,100306.72
2019-05-07T16:52:56.621Z,100306.19
2019-05-07T16:55:36.844Z,100306.67
2019-05-07T16:58:09.042Z,100299.64
2019-05-07T17:00:46.729Z,100309.42
2019-05-07T17:03:20.676Z,100305.81
2019-05-07T17:05:52.448Z,100306.88
2019-05-07T17:08:31.893Z,100307.12
2019-05-07T17:11:03.052Z,100311.20
2019-05-07T17:13:35.085Z,100310.55
2019-05-07T17:16:05.741Z,100312.31
2019-05-07T17:18:36.016Z,100314.81
2019-05-07T17:21:06.619Z,100315.94
2019-05-07T17:23:44.051Z,100318.20
2019-05-07T17:26:09.248Z,100321.69
2019-05-07T17:28:42.589Z,100324.08
2019-05-07T17:31:13.176Z,100323.46
2019-05-07T17:33:52.113Z,100324.66
2019-05-07T17:36:24.047Z,100325.07
2019-05-07T17:38:54.273Z,100331.73
2019-05-07T17:41:27.170Z,100332.91
2019-05-07T17:43:56.832Z,100330.29
2019-05-07T17:46:27.707Z,100331.51
2019-05-07T17:48:59.793Z,100333.77
2019-05-07T17:51:43.878Z,100335.91
2019-05-07T17:54:15.439Z,100336.29
2019-05-07T17:56:45.757Z,100340.23
2019-05-07T17:59:16.094Z,100348.03
2019-05-07T18:01:52.908Z,100346.81
2019-05-07T18:04:23.445Z,100351.23
2019-05-07T18:06:54.056Z,100361.13
2019-05-07T18:09:24.739Z,100363.35
2019-05-07T18:11:55.347Z,100366.34
2019-05-07T18:14:25.942Z,100371.43
2019-05-07T18:16:56.412Z,100375.94
2019-05-07T18:19:28.763Z,100368.77
2019-05-07T18:21:59.412Z,100379.47
2019-05-07T18:24:32.415Z,100382.88
2019-05-07T18:27:04.907Z,100383.22
2019-05-07T18:29:37.204Z,100393.42
2019-05-07T18:32:08.656Z,100392.48
2019-05-07T18:34:38.933Z,100391.91
2019-05-07T18:37:09.280Z,100396.14
2019-05-07T18:39:39.536Z,100399.47
2019-05-07T18:42:10.002Z,100396.30
2019-05-07T18:44:41.695Z,100401.33
2019-05-07T18:47:13.435Z,100416.79
2019-05-07T18:49:44.838Z,100410.93
2019-05-07T18:52:15.813Z,100414.67
2019-05-07T18:54:48.401Z,100416.05
2019-05-07T18:57:22.183Z,100416.31
2019-05-07T18:59:53.294Z,100418.64
2019-05-07T19:02:23.926Z,100424.53
2019-05-07T19:04:54.401Z,100429.45
2019-05-07T19:07:25.232Z,100416.66
2019-05-07T19:09:55.709Z,100422.84
2019-05-07T19:12:29.468Z,100419.09
2019-05-07T19:15:03.110Z,100421.88
2019-05-07T19:17:35.135Z,100421.14
2019-05-07T19:20:06.539Z,100422.11
2019-05-07T19:22:38.044Z,100423.98
2019-05-07T19:25:09.418Z,100415.04
2019-05-07T19:27:39.710Z,100419.09
2019-05-07T19:30:12.703Z,100424.27
2019-05-07T19:32:43.462Z,100426.56
2019-05-07T19:35:14.833Z,100427.19
2019-05-07T19:37:45.618Z,100423.70
2019-05-07T19:40:16.119Z,100424.42
2019-05-07T19:42:46.363Z,100423.37
2019-05-07T19:45:19.076Z,100427.03
2019-05-07T19:47:48.874Z,100429.87
2019-05-07T19:50:19.255Z,100428.36
2019-05-07T19:52:52.206Z,100427.26
2019-05-07T19:55:23.927Z,100427.92
2019-05-07T19:57:58.742Z,100429.38
2019-05-07T20:00:29.061Z,100438.59
2019-05-07T20:03:03.382Z,100431.83
2019-05-07T20:05:37.288Z,100439.36
2019-05-07T20:08:08.146Z,100440.77
2019-05-07T20:10:42.113Z,100441.75
2019-05-07T20:13:12.718Z,100442.69
2019-05-07T20:15:45.937Z,100448.00
2019-05-07T20:18:16.216Z,100442.90
2019-05-07T20:20:47.030Z,100446.00
2019-05-07T20:23:17.492Z,100445.64
2019-05-07T20:25:50.033Z,100452.17
2019-05-07T20:28:21.804Z,100457.42
2019-05-07T20:30:53.665Z,100459.20
2019-05-07T20:33:24.581Z,100460.58
2019-05-07T20:35:56.410Z,100456.77
2019-05-07T20:38:27.111Z,100455.99
2019-05-07T20:40:59.599Z,100460.83
2019-05-07T20:43:32.670Z,100462.61
2019-05-07T20:46:04.846Z,100457.05
2019-05-07T20:48:35.745Z,100463.55
2019-05-07T20:51:06.651Z,100454.97
2019-05-07T20:53:56.348Z,100460.62
2019-05-07T20:56:28.562Z,100468.02
2019-05-07T20:58:58.763Z,100466.32
2019-05-07T21:01:29.018Z,100470.66
2019-05-07T21:04:02.104Z,100476.28
2019-05-07T21:06:33.177Z,100478.45
2019-05-07T21:09:05.612Z,100478.03
2019-05-07T21:11:37.549Z,100481.92
2019-05-07T21:14:08.142Z,100480.20
2019-05-07T21:16:38.757Z,100474.65
2019-05-07T21:19:08.969Z,100481.98
2019-05-07T21:21:48.789Z,100481.56
2019-05-07T21:24:15.802Z,100480.71
2019-05-07T21:26:46.128Z,100475.98
2019-05-07T21:29:16.682Z,100483.31
2019-05-07T21:31:46.959Z,100486.33
2019-05-07T21:34:22.816Z,100486.34
2019-05-07T21:36:52.387Z,100483.75
2019-05-07T21:39:23.275Z,100483.33
2019-05-07T21:41:55.499Z,100484.66
2019-05-07T21:44:26.156Z,100487.67
2019-05-07T21:46:56.866Z,100485.09
2019-05-07T21:49:27.515Z,100488.53
2019-05-07T21:51:59.349Z,100491.12
2019-05-07T21:54:34.126Z,100491.54
2019-05-07T21:57:05.999Z,100490.70
2019-05-07T21:59:38.943Z,100499.30
2019-05-07T22:02:22.061Z,100505.31
2019-05-07T22:04:52.932Z,100513.05
2019-05-07T22:07:27.239Z,100517.79
2019-05-07T22:09:56.442Z,100514.77
2019-05-07T22:12:29.491Z,100512.61
2019-05-07T22:15:04.224Z,100512.17
2019-05-07T22:17:49.200Z,100516.48
2019-05-07T22:20:26.101Z,100513.89
2019-05-07T22:23:06.912Z,100519.03
2019-05-07T22:27:28.631Z,100517.73
2019-05-07T22:28:48.114Z,100515.56
2019-05-07T22:31:44.257Z,100517.28
2019-05-07T22:34:30.675Z,100516.83
2019-05-07T22:37:03.212Z,100520.66
2019-05-07T22:46:02.737Z,100518.05
2019-05-07T22:48:33.305Z,100526.62
2019-05-07T22:51:03.942Z,100526.19
2019-05-07T22:53:37.714Z,100525.71
2019-05-07T22:56:08.357Z,100530.88
2019-05-07T22:58:43.297Z,100525.27
2019-05-07T23:01:19.383Z,100526.52
2019-05-07T23:03:54.075Z,100527.76
2019-05-07T23:06:24.838Z,100533.73
2019-05-07T23:08:58.300Z,100533.70
2019-05-07T23:11:28.989Z,100530.23
2019-05-07T23:13:59.631Z,100530.26
2019-05-07T23:16:32.412Z,100538.41
2019-05-07T23:19:02.848Z,100533.25
2019-05-07T23:21:33.996Z,100538.41
2019-05-07T23:24:04.254Z,100527.24
2019-05-07T23:26:47.302Z,100524.59
2019-05-07T23:29:06.833Z,100532.33
2019-05-07T23:31:37.202Z,100528.50
2019-05-07T23:34:07.443Z,100531.16
2019-05-07T23:36:37.764Z,100524.66
2019-05-07T23:39:11.930Z,100530.19
2019-05-07T23:41:43.443Z,100532.26
2019-05-07T23:44:15.691Z,100533.07
2019-05-07T23:46:46.006Z,100529.55
2019-05-07T23:49:16.479Z,100529.52
2019-05-07T23:51:48.214Z,100531.17
2019-05-07T23:54:18.530Z,100533.67
2019-05-07T23:57:02.922Z,100535.78
2019-05-07T23:59:22.187Z,100531.04
